SR-219 : East of Pentecost Drive Atmospheric Data: 03/22/2019 Summary  Detailed Graphs  Station List

  Temperature     Wind Precipitation Visibility
Timestamp Air Wet
Bulb
Dew-
point
24-hr
Max
24-hr
Min
Relative
Humidity
Atmospheric
Pressure
Avg
Speed
Avg
Dir
Spot
Speed
Spot
Dir
Max
Speed
Max
Dir
  Rate Situation Start End 1 hr 3 hr 6 hr 12 hr 24 hr   Situation
Date Time °F °F °F °F °F % in Hg mph ° mph ° mph ° Y/N in/hr text Date Time Date Time in in in in in mi text
03/22/2019 12:11 AM 51.26 46.40 41.36 66.92 42.62 68.0 x 2.46 N 2.68 NW 4.03 N No 0.000 No Precipitation 03/20/2019 10:36 PM 03/20/2019 11:31 PM 0.000 0.000 0.000 0.000 0.008 1.24 Clear
03/22/2019 12:21 AM 50.90 46.22 41.36 66.92 42.62 70.0 x 3.13 N 2.46 N 4.47 NW No 0.000 No Precipitation 03/20/2019 10:36 PM 03/20/2019 11:31 PM 0.000 0.000 0.000 0.000 0.000 1.24 Clear
03/22/2019 12:51 AM 51.44 45.86 40.28 66.92 42.62 66.0 x 3.80 N 3.58 N 7.83 NW No 0.000 No Precipitation 03/20/2019 10:36 PM 03/20/2019 11:31 PM 0.000 0.000 0.000 0.000 0.000 1.24 Clear
03/22/2019 01:01 AM 50.18 45.68 41.18 66.92 42.62 71.0 x 3.58 N 3.36 N 5.82 NW No 0.000 No Precipitation 03/20/2019 10:36 PM 03/20/2019 11:31 PM 0.000 0.000 0.000 0.000 0.000 1.24 Clear
03/22/2019 01:21 AM 50.00 45.68 41.18 66.92 42.62 72.0 x 4.25 N 4.92 N 6.71 N No 0.000 No Precipitation 03/20/2019 10:36 PM 03/20/2019 11:31 PM 0.000 0.000 0.000 0.000 0.000 1.24 Clear
03/22/2019 02:01 AM 48.56 44.96 41.18 66.92 42.62 75.0 x 3.13 N 2.01 N 4.25 N No 0.000 No Precipitation 03/20/2019 10:36 PM 03/20/2019 11:31 PM 0.000 0.000 0.000 0.000 0.000 1.24 Clear
03/22/2019 02:11 AM 48.20 44.78 41.18 66.92 42.62 76.0 x 2.68 N 3.13 N 4.47 NW No 0.000 No Precipitation 03/20/2019 10:36 PM 03/20/2019 11:31 PM 0.000 0.000 0.000 0.000 0.000 1.24 Clear
03/22/2019 02:31 AM 48.38 44.96 41.36 66.92 42.62 77.0 x 3.13 N 3.13 N 5.82 NE No 0.000 No Precipitation 03/20/2019 10:36 PM 03/20/2019 11:31 PM 0.000 0.000 0.000 0.000 0.000 1.24 Clear
03/22/2019 03:01 AM 47.12 44.78 42.08 66.92 42.62 83.0 x 3.36 NE 4.25 NE 4.92 N No 0.000 No Precipitation 03/20/2019 10:36 PM 03/20/2019 11:31 PM 0.000 0.000 0.000 0.000 0.000 1.24 Clear
03/22/2019 03:11 AM 46.94 44.42 42.08 66.92 42.62 83.0 x 2.91 NE 2.91 NE 4.70 NE No 0.000 No Precipitation 03/20/2019 10:36 PM 03/20/2019 11:31 PM 0.000 0.000 0.000 0.000 0.000 1.24 Clear
03/22/2019 03:21 AM 46.22 44.24 42.08 66.92 42.62 85.0 x 2.68 E 2.46 E 3.36 E No 0.000 No Precipitation 03/20/2019 10:36 PM 03/20/2019 11:31 PM 0.000 0.000 0.000 0.000 0.000 1.24 Clear
03/22/2019 03:41 AM 45.32 44.24 42.62 66.92 42.62 89.0 x 4.03 NE 3.58 NE 5.14 NE No 0.000 No Precipitation 03/20/2019 10:36 PM 03/20/2019 11:31 PM 0.000 0.000 0.000 0.000 0.000 1.24 Clear
03/22/2019 03:51 AM 46.58 44.78 42.62 66.92 42.62 85.0 x 4.70 NE 3.80 NE 6.49 NE No 0.000 No Precipitation 03/20/2019 10:36 PM 03/20/2019 11:31 PM 0.000 0.000 0.000 0.000 0.000 1.24 Clear
03/22/2019 04:01 AM 46.76 44.78 42.62 66.92 42.62 85.0 x 4.03 NE 5.82 NE 7.16 NE No 0.000 No Precipitation 03/20/2019 10:36 PM 03/20/2019 11:31 PM 0.000 0.000 0.000 0.000 0.000 1.24 Clear
03/22/2019 04:12 AM 47.30 45.14 42.80 66.92 42.62 84.0 x 4.70 NE 4.47 NE 6.49 NE No 0.000 No Precipitation 03/20/2019 10:36 PM 03/20/2019 11:31 PM 0.000 0.000 0.000 0.000 0.000 1.24 Clear
03/22/2019 04:21 AM 47.12 45.14 42.80 66.92 42.62 85.0 x 3.58 E 4.25 E 6.04 NE No 0.000 No Precipitation 03/20/2019 10:36 PM 03/20/2019 11:31 PM 0.000 0.000 0.000 0.000 0.000 1.24 Clear
03/22/2019 04:41 AM 46.22 44.78 43.16 66.92 42.62 88.0 x 0.45 NE 0.89 N 2.46 NE No 0.000 No Precipitation 03/20/2019 10:36 PM 03/20/2019 11:31 PM 0.000 0.000 0.000 0.000 0.000 1.24 Clear
03/22/2019 05:21 AM 46.04 44.42 42.98 66.92 42.62 89.0 x 1.79 NW 1.57 W 2.01 NW No 0.000 No Precipitation 03/20/2019 10:36 PM 03/20/2019 11:31 PM 0.000 0.000 0.000 0.000 0.000 1.24 Clear
03/22/2019 05:31 AM 45.86 44.42 43.16 66.92 42.62 90.0 x 1.79 W 2.46 W 2.91 W No 0.000 No Precipitation 03/20/2019 10:36 PM 03/20/2019 11:31 PM 0.000 0.000 0.000 0.000 0.000 1.24 Clear
03/22/2019 05:51 AM 45.14 44.06 42.98 66.92 42.62 92.0 x 2.68 SW 2.68 W 4.92 W No 0.000 No Precipitation 03/20/2019 10:36 PM 03/20/2019 11:31 PM 0.000 0.000 0.000 0.000 0.000 1.24 Clear
03/22/2019 06:02 AM 45.68 44.06 42.44 66.92 42.62 88.0 x 2.91 SW 2.24 SW 5.59 SW No 0.000 No Precipitation 03/20/2019 10:36 PM 03/20/2019 11:31 PM 0.000 0.000 0.000 0.000 0.000 1.24 Clear
03/22/2019 06:11 AM 44.96 44.06 43.16 66.92 42.62 93.0 x 1.34 S 0.45 E 3.36 SW No 0.000 No Precipitation 03/20/2019 10:36 PM 03/20/2019 11:31 PM 0.000 0.000 0.000 0.000 0.000 1.24 Clear
03/22/2019 06:31 AM 44.42 43.52 42.44 66.92 42.62 94.0 x 1.57 E 1.34 SE 2.46 E No 0.000 No Precipitation 03/20/2019 10:36 PM 03/20/2019 11:31 PM 0.000 0.000 0.000 0.000 0.000 1.24 Clear
03/22/2019 06:41 AM 43.88 43.34 42.80 66.92 42.62 96.0 x 1.57 E 1.12 E 2.01 E No 0.000 No Precipitation 03/20/2019 10:36 PM 03/20/2019 11:31 PM 0.000 0.000 0.000 0.000 0.000 1.24 Clear
03/22/2019 06:51 AM 43.88 43.34 42.98 66.92 42.62 96.0 x 1.79 E 1.12 E 2.46 E No 0.000 No Precipitation 03/20/2019 10:36 PM 03/20/2019 11:31 PM 0.000 0.000 0.000 0.000 0.000 1.24 Clear
03/22/2019 07:11 AM 43.88 43.34 42.98 66.92 43.34 96.0 x 1.12 E 2.46 E 1.34 E No 0.000 No Precipitation 03/20/2019 10:36 PM 03/20/2019 11:31 PM 0.000 0.000 0.000 0.000 0.000 1.24 Clear
03/22/2019 07:32 AM 45.50 44.06 42.44 66.92 43.34 89.0 x 2.68 SW 2.01 SW 3.58 SW No 0.000 No Precipitation 03/20/2019 10:36 PM 03/20/2019 11:31 PM 0.000 0.000 0.000 0.000 0.000 1.24 Clear
03/22/2019 07:41 AM 45.86 44.24 42.44 66.92 43.34 87.0 x 1.12 SW 1.34 S 3.36 SW No 0.000 No Precipitation 03/20/2019 10:36 PM 03/20/2019 11:31 PM 0.000 0.000 0.000 0.000 0.000 1.24 Clear
03/22/2019 08:01 AM 45.86 44.24 42.44 66.92 43.34 87.0 x 2.68 SW 2.46 SW 5.14 SW No 0.000 No Precipitation 03/20/2019 10:36 PM 03/20/2019 11:31 PM 0.000 0.000 0.000 0.000 0.000 1.24 Clear
03/22/2019 08:21 AM 46.22 44.42 42.44 66.92 43.52 86.0 x 4.47 SW 3.58 W 5.82 SW No 0.000 No Precipitation 03/20/2019 10:36 PM 03/20/2019 11:31 PM 0.000 0.000 0.000 0.000 0.000 1.24 Clear
03/22/2019 08:32 AM 46.58 44.60 42.62 66.92 43.52 86.0 x 4.70 SW 4.03 SW 6.04 SW No 0.000 No Precipitation 03/20/2019 10:36 PM 03/20/2019 11:31 PM 0.000 0.000 0.000 0.000 0.000 1.24 Clear
03/22/2019 08:41 AM 46.94 44.96 42.80 66.92 43.52 86.0 x 3.36 SW 3.13 SW 5.37 SW No 0.000 No Precipitation 03/20/2019 10:36 PM 03/20/2019 11:31 PM 0.000 0.000 0.000 0.000 0.000 1.24 Clear
03/22/2019 09:21 AM 49.64 46.94 44.24 66.92 43.52 82.0 x 4.03 E 3.13 E 4.92 E No 0.000 No Precipitation 03/20/2019 10:36 PM 03/20/2019 11:31 PM 0.000 0.000 0.000 0.000 0.000 1.24 Clear
03/22/2019 09:41 AM 50.54 47.48 43.88 66.92 43.52 78.0 x 2.01 SE 2.46 SE 3.58 E No 0.000 No Precipitation 03/20/2019 10:36 PM 03/20/2019 11:31 PM 0.000 0.000 0.000 0.000 0.000 1.24 Clear
03/22/2019 09:51 AM 51.26 47.48 44.06 66.92 43.52 76.0 x 2.68 S 2.91 S 4.70 SE No 0.000 No Precipitation 03/20/2019 10:36 PM 03/20/2019 11:31 PM 0.000 0.000 0.000 0.000 0.000 1.24 Clear
03/22/2019 10:11 AM 52.88 48.38 43.70 66.92 43.52 71.0 x 2.68 SW 3.58 SW 3.80 SW No 0.000 No Precipitation 03/20/2019 10:36 PM 03/20/2019 11:31 PM 0.000 0.000 0.000 0.000 0.000 1.24 Clear
03/22/2019 10:21 AM 53.06 48.02 42.98 66.92 43.52 68.0 x 2.68 S 2.91 SW 4.70 S No 0.000 No Precipitation 03/20/2019 10:36 PM 03/20/2019 11:31 PM 0.000 0.000 0.000 0.000 0.000 1.24 Clear
03/22/2019 10:31 AM 53.96 48.20 43.34 66.92 43.52 67.0 x 2.46 SW 2.01 W 4.47 SW No 0.000 No Precipitation 03/20/2019 10:36 PM 03/20/2019 11:31 PM 0.000 0.000 0.000 0.000 0.000 1.24 Clear
03/22/2019 11:01 AM 54.14 48.56 43.16 66.92 43.52 67.0 x 3.36 SE 3.80 E 5.14 E No 0.000 No Precipitation 03/20/2019 10:36 PM 03/20/2019 11:31 PM 0.000 0.000 0.000 0.000 0.000 1.24 Clear
03/22/2019 11:11 AM 54.68 49.10 43.52 66.92 43.52 67.0 x 3.80 E 4.70 E 5.59 E No 0.000 No Precipitation 03/20/2019 10:36 PM 03/20/2019 11:31 PM 0.000 0.000 0.000 0.000 0.000 1.24 Clear
03/22/2019 11:21 AM 54.50 49.64 44.78 66.92 43.52 71.0 x 4.25 E 4.25 SE 6.26 E No 0.000 No Precipitation 03/20/2019 10:36 PM 03/20/2019 11:31 PM 0.000 0.000 0.000 0.000 0.000 1.24 Clear
03/22/2019 11:31 AM 54.32 49.28 44.24 66.92 43.52 70.0 x 6.04 E 7.38 E 7.61 E No 0.000 No Precipitation 03/20/2019 10:36 PM 03/20/2019 11:31 PM 0.000 0.000 0.000 0.000 0.000 1.24 Clear
03/22/2019 11:51 AM 54.50 50.00 44.96 66.92 43.52 69.0 x 4.92 E 5.59 E 8.28 E No 0.000 No Precipitation 03/20/2019 10:36 PM 03/20/2019 11:31 PM 0.000 0.000 0.000 0.000 0.000 1.24 Clear
03/22/2019 12:01 PM 55.58 50.36 45.32 66.92 43.52 67.0 x 5.37 E 6.04 E 7.83 E No 0.000 No Precipitation 03/20/2019 10:36 PM 03/20/2019 11:31 PM 0.000 0.000 0.000 0.000 0.000 1.24 Clear
03/22/2019 12:11 PM 56.48 50.00 44.60 66.92 43.52 64.0 x 4.92 E 5.59 E 7.83 E No 0.000 No Precipitation 03/20/2019 10:36 PM 03/20/2019 11:31 PM 0.000 0.000 0.000 0.000 0.000 1.24 Clear
03/22/2019 12:41 PM 58.28 50.54 42.44 66.92 43.52 55.0 x 4.25 SE 2.46 S 8.50 SE No 0.000 No Precipitation 03/20/2019 10:36 PM 03/20/2019 11:31 PM 0.000 0.000 0.000 0.000 0.000 1.24 Clear
03/22/2019 12:51 PM 58.82 50.18 42.26 66.92 43.52 54.0 x 5.59 SE 2.01 SE 8.95 SE No 0.000 No Precipitation 03/20/2019 10:36 PM 03/20/2019 11:31 PM 0.000 0.000 0.000 0.000 0.000 1.24 Clear
03/22/2019 01:11 PM 59.90 50.72 42.26 66.92 43.52 50.0 x 4.70 SE 6.04 S 9.40 SE No 0.000 No Precipitation 03/20/2019 10:36 PM 03/20/2019 11:31 PM 0.000 0.000 0.000 0.000 0.000 1.24 Clear
03/22/2019 01:21 PM 61.16 51.08 41.54 66.92 43.52 48.0 x 7.83 SE 4.70 SE 11.18 SE No 0.000 No Precipitation 03/20/2019 10:36 PM 03/20/2019 11:31 PM 0.000 0.000 0.000 0.000 0.000 1.24 Clear
03/22/2019 01:32 PM 60.98 50.36 39.92 66.92 43.52 45.0 x 5.59 S 9.62 SE 10.51 S No 0.000 No Precipitation 03/20/2019 10:36 PM 03/20/2019 11:31 PM 0.000 0.000 0.000 0.000 0.000 1.24 Clear
03/22/2019 01:41 PM 61.16 50.18 38.48 66.92 43.52 44.0 x 5.82 S 4.92 S 12.30 S No 0.000 No Precipitation 03/20/2019 10:36 PM 03/20/2019 11:31 PM 0.000 0.000 0.000 0.000 0.000 1.24 Clear
03/22/2019 01:51 PM 60.98 50.36 39.56 66.92 43.52 45.0 x 6.04 SE 1.34 SE 11.86 SE No 0.000 No Precipitation 03/20/2019 10:36 PM 03/20/2019 11:31 PM 0.000 0.000 0.000 0.000 0.000 1.24 Clear
03/22/2019 02:11 PM 62.42 50.72 39.20 66.92 43.52 40.0 x 5.37 SE 5.37 SE 11.63 SE No 0.000 No Precipitation 03/20/2019 10:36 PM 03/20/2019 11:31 PM 0.000 0.000 0.000 0.000 0.000 1.24 Clear
03/22/2019 02:21 PM 62.96 50.00 37.04 66.92 43.52 37.0 x 5.37 SE 4.03 SE 11.18 SE No 0.000 No Precipitation 03/20/2019 10:36 PM 03/20/2019 11:31 PM 0.000 0.000 0.000 0.000 0.000 1.24 Clear
03/22/2019 02:31 PM 63.14 50.18 37.58 66.92 43.52 38.0 x 6.04 SE 8.28 S 11.86 S No 0.000 No Precipitation 03/20/2019 10:36 PM 03/20/2019 11:31 PM 0.000 0.000 0.000 0.000 0.000 1.24 Clear
03/22/2019 02:41 PM 62.24 50.72 37.94 66.92 43.52 41.0 x 5.14 SE 2.91 SE 11.18 S No 0.000 No Precipitation 03/20/2019 10:36 PM 03/20/2019 11:31 PM 0.000 0.000 0.000 0.000 0.000 1.24 Clear
03/22/2019 03:11 PM 62.96 50.36 37.94 66.92 43.52 39.0 x 5.82 SE 6.26 SE 9.84 SE No 0.000 No Precipitation 03/20/2019 10:36 PM 03/20/2019 11:31 PM 0.000 0.000 0.000 0.000 0.000 1.24 Clear
03/22/2019 03:31 PM 62.96 50.00 35.96 66.92 43.52 38.0 x 6.26 S 6.04 S 12.08 SE No 0.000 No Precipitation 03/20/2019 10:36 PM 03/20/2019 11:31 PM 0.000 0.000 0.000 0.000 0.000 1.24 Clear
03/22/2019 03:42 PM 63.68 49.64 35.42 66.92 43.52 34.0 x 6.93 S 5.37 SE 10.51 SE No 0.000 No Precipitation 03/20/2019 10:36 PM 03/20/2019 11:31 PM 0.000 0.000 0.000 0.000 0.000 1.24 Clear
03/22/2019 04:11 PM 63.32 50.36 36.32 66.92 43.52 37.0 x 4.70 S 5.14 SE 11.63 S No 0.000 No Precipitation 03/20/2019 10:36 PM 03/20/2019 11:31 PM 0.000 0.000 0.000 0.000 0.000 1.24 Clear
03/22/2019 04:51 PM 64.22 52.16 41.00 66.92 43.52 42.0 x 6.26 S 7.38 S 10.07 SE No 0.000 No Precipitation 03/20/2019 10:36 PM 03/20/2019 11:31 PM 0.000 0.000 0.000 0.000 0.000 1.24 Clear
03/22/2019 05:01 PM 63.86 52.52 42.08 66.92 43.52 44.0 x 4.47 SW 2.91 SE 9.62 SE No 0.000 No Precipitation 03/20/2019 10:36 PM 03/20/2019 11:31 PM 0.000 0.000 0.000 0.000 0.000 1.24 Clear
03/22/2019 05:21 PM 64.04 52.52 42.26 66.56 43.52 44.0 x 4.25 SE 7.38 SE 11.41 SE No 0.000 No Precipitation 03/20/2019 10:36 PM 03/20/2019 11:31 PM 0.000 0.000 0.000 0.000 0.000 1.24 Clear
03/22/2019 05:31 PM 64.94 52.52 42.44 66.56 43.52 44.0 x 4.25 SE 5.14 S 10.29 SE No 0.000 No Precipitation 03/20/2019 10:36 PM 03/20/2019 11:31 PM 0.000 0.000 0.000 0.000 0.000 1.24 Clear
03/22/2019 05:41 PM 64.22 52.34 42.26 66.56 43.52 45.0 x 8.95 SE 4.70 SE 12.53 SE No 0.000 No Precipitation 03/20/2019 10:36 PM 03/20/2019 11:31 PM 0.000 0.000 0.000 0.000 0.000 1.24 Clear
03/22/2019 05:51 PM 63.86 51.98 41.54 66.56 43.52 44.0 x 6.93 SE 8.72 E 9.84 SE No 0.000 No Precipitation 03/20/2019 10:36 PM 03/20/2019 11:31 PM 0.000 0.000 0.000 0.000 0.000 1.24 Clear
03/22/2019 06:01 PM 63.50 51.98 41.72 66.56 43.52 44.0 x 7.38 SE 4.92 E 11.18 SE No 0.000 No Precipitation 03/20/2019 10:36 PM 03/20/2019 11:31 PM 0.000 0.000 0.000 0.000 0.000 1.24 Clear
03/22/2019 06:21 PM 63.50 52.34 41.90 64.94 43.52 46.0 x 5.37 SE 4.25 E 8.28 SE No 0.000 No Precipitation 03/20/2019 10:36 PM 03/20/2019 11:31 PM 0.000 0.000 0.000 0.000 0.000 1.24 Clear
03/22/2019 06:31 PM 63.50 52.34 42.44 64.94 43.52 46.0 x 5.82 SE 3.80 S 9.40 SE No 0.000 No Precipitation 03/20/2019 10:36 PM 03/20/2019 11:31 PM 0.000 0.000 0.000 0.000 0.000 1.24 Clear
03/22/2019 06:41 PM 62.96 52.88 43.70 64.94 43.52 51.0 x 4.25 S 5.14 SW 8.50 SE No 0.000 No Precipitation 03/20/2019 10:36 PM 03/20/2019 11:31 PM 0.000 0.000 0.000 0.000 0.000 1.24 Clear
03/22/2019 07:12 PM 61.16 54.50 48.74 64.94 43.52 65.0 x 4.47 SW 3.58 SW 7.16 S Yes 0.000 Rain Slight 03/22/2019 05:47 PM   0.004 0.004 0.004 0.004 0.004 1.24 Unknown
03/22/2019 07:41 PM 60.08 54.32 50.36 64.94 43.52 69.0 x 4.92 S 3.13 SW 7.38 S Yes 0.001 Rain Slight 03/22/2019 05:47 PM   0.004 0.004 0.004 0.004 0.004 1.24 Unknown
03/22/2019 08:21 PM 58.10 55.04 52.34 64.94 43.52 83.0 x 5.37 S 5.82 SW 8.72 S Yes 0.000 Rain Slight 03/22/2019 07:01 PM   0.004 0.008 0.008 0.008 0.008 1.24 Unknown
03/22/2019 09:01 PM 56.84 55.58 54.50 64.94 43.52 93.0 x 3.36 SW 2.68 SW 6.49 SW Yes 0.000 Rain Slight 03/22/2019 07:38 PM   0.004 0.012 0.012 0.012 0.012 1.24 Unknown
03/22/2019 09:21 PM 56.48 56.12 55.94 64.94 43.52 98.0 x 1.79 S 2.01 S 3.80 SW Yes 0.000 Rain Slight 03/22/2019 07:38 PM   0.004 0.016 0.016 0.016 0.016 1.24 Unknown
03/22/2019 09:31 PM 56.66 55.58 55.22 64.94 43.52 93.0 x 2.91 S 3.80 S 4.25 S Yes 0.001 Rain Moderate 03/22/2019 07:38 PM   0.008 0.016 0.016 0.016 0.016 1.24 Unknown
03/22/2019 09:41 PM 56.66 54.68 53.78 64.94 43.52 88.0 x 3.58 S 3.13 S 4.70 S Yes 0.001 Rain Moderate 03/22/2019 07:38 PM   0.012 0.020 0.020 0.020 0.020 1.24 Unknown
03/22/2019 10:01 PM 57.02 54.68 53.42 64.94 43.52 86.0 x 1.57 S 1.34 SE 4.03 SE Yes 0.000 Rain Slight 03/22/2019 07:38 PM   0.012 0.024 0.024 0.024 0.024 1.24 Unknown
03/22/2019 10:11 PM 57.02 53.96 52.16 64.94 43.52 83.0 x 3.58 SE 3.13 SE 4.92 SE Yes 0.001 Rain Slight 03/22/2019 07:38 PM   0.012 0.024 0.028 0.028 0.028 1.24 Unknown
03/22/2019 10:21 PM 57.02 53.42 50.72 64.94 43.52 79.0 x 3.80 S 3.58 S 6.04 S Yes 0.000 Rain Slight 03/22/2019 07:38 PM   0.012 0.024 0.028 0.028 0.028 1.24 Unknown
03/22/2019 10:51 PM 56.48 53.78 51.44 64.94 43.52 84.0 x 3.36 S 3.13 S 5.82 S Yes 0.000 Rain Slight 03/22/2019 09:31 PM   0.004 0.024 0.031 0.031 0.031 1.24 Unknown
03/22/2019 11:01 PM 56.48 53.96 51.98 64.94 43.52 86.0 x 2.68 SE 2.24 S 4.25 S Yes 0.000 Rain Slight 03/22/2019 09:31 PM   0.004 0.024 0.031 0.031 0.031 1.24 Unknown
03/22/2019 11:11 PM 56.30 53.96 51.98 64.94 43.52 86.0 x 3.36 S 3.80 S 4.70 S Yes 0.000 Rain Slight 03/22/2019 09:31 PM   0.004 0.024 0.031 0.031 0.031 1.24 Unknown
03/22/2019 11:41 PM 55.58 55.22 54.86 64.94 43.52 97.0 x 2.24 E 2.46 E 3.13 E Yes 0.000 Rain Slight 03/22/2019 09:31 PM   0.004 0.024 0.031 0.031 0.031 1.24 Unknown